Aérodrome :
LOGIN :

S'inscrire | Disclaimer

   EN    FR    IT 

 










Légende :    VFR   VFR Marginal   IFR   IFR Intensif   IFR Très Intensif
Visi : 
Plafond : 
>= 8 km
>= 3000ft
5 à 8 km
1000 à 3000 ft
1500m à 5 km
500 à 1000 ft
800 à 1500m
200 à 500 ft
< 800m
< 200 ft
Symboles :   Orages  Brouillard  Fortes neiges  Fortes précipitations  Vent > 20 kt
SIGMETs :   Divers  Orages  Givrage  Turbulence  Onde Orograph.  Cendres Volcan.







- Altitude de l'aérodrome : 82 ft
- Code IATA : QIE
- Voir les cartes d'approche


LFMI - Istres

DERNIER METAR :
  • 221830Z AUTO 31009KT CAVOK 24/00 Q1019 NOSIG

METARs EXPIRÉS :
  • 221800Z AUTO 30008KT CAVOK 24/00 Q1018 NOSIG
  • 221730Z AUTO 30009KT CAVOK 25/01 Q1018 BECMG 34022KT
  • 221700Z AUTO 30010KT CAVOK 27/M00 Q1018 BECMG 34022KT
  • 221600Z AUTO 31017KT 9000 NSC 28/M01 Q1018 NOSIG

TAF AMD TAF LFMI
Valide du 22 à 17h jusqu'au 23 à 15h UTC


221731Z 2217/2315 34022KT CAVOK
BECMG 2217/2221 32010KT
TEMPO 2313/2315 26014KT
Pas de NOTAMs connus pour ce terrain.



MET'MAP, la Météo Aéronautique d'un coup d'oeil ! - Copyright ORBIFLY Décembre 2007 - Disclaimer

ORBIFLY MET'MAP TEAM :

Programmation & Développement : Alexandra Zaïnal
Conception & Développement : Baudouin d'Aumeries
Co-Programmation & Développement : Marc-Olivier Méhu
Soutien technique & logistique : Manuel Goepfert

Contact : metmap@orbifly.com




SOURCES & CREDITS :

   NOAA